Time;durP1;ratioP1;P1;durP2;ratioP2;P2;SDS_P1;SDS_P2;PMS_P1;PMS_P2;Temp;Humidity;BMP_temperature;BMP_pressure;BME280_temperature;BME280_humidity;BME280_pressure;Samples;Min_cycle;Max_cycle;Signal;HPM_P1;HPM_P2
2021/01/05 00:00:19;;;;;;;71.95;13.68;;;1.10;1.00;;;;;;5051130;28;20251;-68
2021/01/05 00:02:45;;;;;;;73.32;14.68;;;1.20;1.00;;;;;;5050972;28;20205;-68
2021/01/05 00:05:13;;;;;;;74.63;14.85;;;1.20;1.00;;;;;;5051520;28;20588;-68
2021/01/05 00:07:41;;;;;;;71.95;13.95;;;1.20;1.00;;;;;;5051511;28;20213;-67
2021/01/05 00:10:09;;;;;;;75.13;13.88;;;1.20;1.00;;;;;;5051411;28;20654;-68
2021/01/05 00:12:36;;;;;;;72.35;14.80;;;1.20;1.00;;;;;;5051021;28;20582;-68
2021/01/05 00:15:04;;;;;;;76.05;15.73;;;1.20;1.00;;;;;;5051002;28;20237;-68
2021/01/05 00:17:30;;;;;;;74.90;14.52;;;1.20;1.00;;;;;;5050887;28;20210;-68
2021/01/05 00:19:57;;;;;;;77.50;14.32;;;1.20;1.00;;;;;;5051134;28;20202;-68
2021/01/05 00:22:23;;;;;;;78.15;15.77;;;1.20;1.00;;;;;;5050972;28;20585;-68
2021/01/05 00:24:50;;;;;;;76.00;15.55;;;1.20;1.00;;;;;;5051127;28;20225;-68
2021/01/05 00:27:17;;;;;;;72.20;14.68;;;1.20;1.00;;;;;;5051225;28;20587;-67
2021/01/05 00:29:43;;;;;;;79.68;16.83;;;1.20;1.00;;;;;;5050890;28;20213;-68
2021/01/05 00:32:14;;;;;;;76.07;14.88;;;1.20;1.00;;;;;;5051491;28;20248;-67
2021/01/05 00:34:41;;;;;;;76.40;15.73;;;1.20;1.00;;;;;;5050887;28;20310;-68
2021/01/05 00:37:07;;;;;;;70.15;14.40;;;1.20;1.00;;;;;;5050978;28;20692;-68
2021/01/05 00:39:34;;;;;;;75.53;15.18;;;1.20;1.00;;;;;;5051477;28;20251;-68
2021/01/05 00:42:01;;;;;;;75.30;15.15;;;1.20;1.00;;;;;;5051649;28;20245;-68
2021/01/05 00:44:27;;;;;;;76.65;15.00;;;1.30;1.00;;;;;;5050332;28;20268;-67
2021/01/05 00:46:54;;;;;;;74.15;14.90;;;1.30;1.00;;;;;;5051118;28;20637;-68
2021/01/05 00:49:20;;;;;;;72.80;14.77;;;1.30;1.00;;;;;;5051042;28;20680;-68
2021/01/05 00:51:46;;;;;;;77.43;14.75;;;1.30;1.00;;;;;;5051527;28;20321;-68
2021/01/05 00:54:13;;;;;;;76.38;16.60;;;1.30;1.00;;;;;;5050527;28;20220;-68
2021/01/05 00:56:39;;;;;;;74.20;15.40;;;1.30;1.00;;;;;;5050815;28;20205;-68
2021/01/05 00:59:06;;;;;;;69.85;14.63;;;1.30;1.00;;;;;;5050682;28;20233;-68
2021/01/05 01:01:33;;;;;;;75.25;14.70;;;1.30;1.00;;;;;;5050851;28;20241;-68
2021/01/05 01:03:59;;;;;;;76.65;16.20;;;1.30;1.00;;;;;;5050545;28;20202;-68
2021/01/05 01:06:25;;;;;;;71.82;14.07;;;1.30;1.00;;;;;;5050729;28;20209;-68
2021/01/05 01:08:52;;;;;;;74.43;15.00;;;1.30;1.00;;;;;;5050798;28;20681;-68
2021/01/05 01:11:19;;;;;;;72.05;14.63;;;1.30;1.00;;;;;;5050961;28;20225;-68
2021/01/05 01:13:46;;;;;;;75.15;15.57;;;1.30;1.00;;;;;;5054059;28;20685;-68
2021/01/05 01:16:13;;;;;;;76.07;14.32;;;1.30;1.00;;;;;;5054134;28;20650;-68
2021/01/05 01:18:40;;;;;;;72.80;14.93;;;1.30;1.00;;;;;;5054569;28;20576;-68
2021/01/05 01:21:06;;;;;;;79.28;16.20;;;1.30;1.00;;;;;;5054316;28;20624;-68
2021/01/05 01:23:33;;;;;;;72.53;14.27;;;1.30;1.00;;;;;;5053983;28;20634;-68
2021/01/05 01:25:59;;;;;;;77.25;16.00;;;1.30;1.00;;;;;;5054065;28;20225;-67
2021/01/05 01:28:27;;;;;;;74.90;14.30;;;1.30;1.00;;;;;;5054509;28;20213;-68
2021/01/05 01:30:54;;;;;;;75.03;14.57;;;1.30;1.00;;;;;;5054288;28;20236;-68
2021/01/05 01:33:21;;;;;;;75.72;14.52;;;1.30;1.00;;;;;;5053704;28;20673;-68
2021/01/05 01:35:47;;;;;;;75.28;15.00;;;1.30;1.00;;;;;;5054141;28;20234;-68
2021/01/05 01:38:13;;;;;;;76.57;16.13;;;1.30;1.00;;;;;;5053894;28;20210;-68
2021/01/05 01:40:42;;;;;;;78.07;16.67;;;1.30;1.00;;;;;;5053849;28;20198;-67
2021/01/05 01:43:08;;;;;;;78.80;16.13;;;1.30;1.00;;;;;;5053678;28;20206;-68
2021/01/05 01:45:35;;;;;;;75.70;15.90;;;1.30;1.00;;;;;;5053876;28;20261;-68
2021/01/05 01:48:03;;;;;;;81.25;16.50;;;1.30;1.00;;;;;;5053973;28;20216;-67
2021/01/05 01:50:33;;;;;;;73.63;13.82;;;1.30;1.00;;;;;;5053904;28;20235;-67
2021/01/05 01:53:33;;;;;;;79.35;15.82;;;1.30;1.00;;;;;;5053594;28;20210;-68
2021/01/05 01:56:25;;;;;;;74.25;15.48;;;1.30;1.00;;;;;;5053825;28;20235;-67
2021/01/05 01:58:58;;;;;;;73.03;14.02;;;1.30;1.00;;;;;;5053726;28;20212;-67
2021/01/05 02:01:42;;;;;;;72.95;13.63;;;1.30;1.00;;;;;;5053456;28;20217;-68
2021/01/05 02:04:44;;;;;;;76.72;15.80;;;1.30;1.00;;;;;;5053273;28;20680;-68
2021/01/05 02:07:43;;;;;;;76.20;14.70;;;1.30;1.00;;;;;;5053449;28;20275;-68
2021/01/05 02:10:42;;;;;;;73.30;14.13;;;1.30;1.00;;;;;;5000628;28;20229;-68
2021/01/05 02:13:34;;;;;;;75.20;15.32;;;1.30;1.00;;;;;;5049145;28;20240;-68
2021/01/05 02:16:15;;;;;;;72.65;14.35;;;1.30;1.00;;;;;;5083254;22;20253;-67
2021/01/05 02:18:45;;;;;;;82.07;15.00;;;1.30;1.00;;;;;;5093486;28;20585;-67
2021/01/05 02:21:22;;;;;;;73.50;13.45;;;1.30;1.00;;;;;;5093767;28;20571;-70
2021/01/05 02:24:19;;;;;;;76.53;15.63;;;1.30;1.00;;;;;;5071977;28;20667;-68
2021/01/05 02:26:51;;;;;;;77.63;16.10;;;1.30;1.00;;;;;;5071770;28;20633;-68
2021/01/05 02:29:24;;;;;;;74.22;15.40;;;1.30;1.00;;;;;;5073072;28;20205;-68
2021/01/05 02:32:04;;;;;;;78.45;15.13;;;1.30;1.00;;;;;;5073349;28;20306;-69
2021/01/05 02:34:47;;;;;;;78.85;16.25;;;1.30;1.00;;;;;;5072596;28;20251;-68
2021/01/05 02:37:28;;;;;;;74.15;14.40;;;1.30;1.00;;;;;;5073105;28;20269;-68
2021/01/05 02:40:18;;;;;;;77.38;16.15;;;1.30;1.00;;;;;;5072902;28;20240;-68
2021/01/05 02:43:18;;;;;;;77.72;16.23;;;1.30;1.00;;;;;;5072364;28;20267;-68
2021/01/05 02:46:02;;;;;;;75.07;16.02;;;1.30;1.00;;;;;;5072889;28;20233;-68
2021/01/05 02:48:42;;;;;;;76.47;15.63;;;1.30;1.00;;;;;;5072679;28;20697;-68
2021/01/05 02:51:31;;;;;;;81.20;17.75;;;1.30;1.00;;;;;;5072437;28;20228;-68
2021/01/05 02:54:34;;;;;;;80.55;16.13;;;1.30;1.00;;;;;;5072400;28;20288;-69
2021/01/05 02:57:30;;;;;;;80.75;16.92;;;1.30;1.00;;;;;;5072477;28;20258;-68
2021/01/05 03:00:36;;;;;;;84.80;17.38;;;1.30;1.00;;;;;;5072635;28;20216;-68
2021/01/05 03:03:39;;;;;;;80.10;17.90;;;1.30;1.00;;;;;;5072319;28;20208;-68
2021/01/05 03:06:20;;;;;;;80.28;16.83;;;1.30;1.00;;;;;;5072502;28;21037;-68
2021/01/05 03:09:07;;;;;;;77.70;16.30;;;1.30;1.00;;;;;;5072504;28;20577;-68
2021/01/05 03:11:42;;;;;;;78.70;15.77;;;1.30;1.00;;;;;;5072220;28;20629;-68
2021/01/05 03:14:13;;;;;;;80.30;17.08;;;1.30;1.00;;;;;;5071905;28;20208;-68
2021/01/05 03:16:49;;;;;;;76.65;16.42;;;1.30;1.00;;;;;;5072110;28;20276;-68
2021/01/05 03:19:25;;;;;;;78.47;16.70;;;1.30;1.00;;;;;;5072354;28;20201;-68
2021/01/05 03:21:57;;;;;;;81.70;16.90;;;1.30;1.00;;;;;;5072092;28;20236;-69
2021/01/05 03:24:25;;;;;;;79.68;17.00;;;1.30;1.00;;;;;;5071720;28;20200;-68
2021/01/05 03:26:53;;;;;;;84.78;18.75;;;1.30;1.00;;;;;;5071800;28;20232;-68
2021/01/05 03:29:20;;;;;;;83.53;18.25;;;1.30;1.00;;;;;;5071915;28;20206;-68
2021/01/05 03:31:51;;;;;;;82.07;16.45;;;1.30;1.00;;;;;;5072054;28;20228;-68
2021/01/05 03:34:18;;;;;;;78.63;16.08;;;1.30;1.00;;;;;;5071231;28;20212;-68
2021/01/05 03:36:44;;;;;;;77.88;15.95;;;1.30;1.00;;;;;;5071662;28;20281;-69
2021/01/05 03:39:13;;;;;;;78.65;16.50;;;1.30;1.00;;;;;;5071601;28;20205;-69
2021/01/05 03:41:41;;;;;;;83.93;17.08;;;1.30;1.00;;;;;;5071917;28;20676;-68
2021/01/05 03:44:09;;;;;;;79.53;17.58;;;1.30;1.00;;;;;;5071545;28;20304;-68
2021/01/05 03:46:36;;;;;;;81.45;18.27;;;1.30;1.00;;;;;;5071502;28;20641;-68
2021/01/05 03:49:03;;;;;;;75.70;16.05;;;1.30;1.00;;;;;;5071621;28;20209;-68
2021/01/05 03:51:29;;;;;;;80.25;17.42;;;1.30;1.00;;;;;;5071441;28;20653;-68
2021/01/05 03:53:56;;;;;;;81.45;17.27;;;1.30;1.00;;;;;;5071376;28;20292;-68
2021/01/05 03:56:23;;;;;;;76.93;15.93;;;1.30;1.00;;;;;;5071687;28;20256;-68
2021/01/05 03:58:49;;;;;;;82.55;17.13;;;1.30;1.00;;;;;;5071502;28;20623;-68
2021/01/05 04:01:16;;;;;;;78.78;15.88;;;1.30;1.00;;;;;;5071547;28;20687;-69
2021/01/05 04:03:42;;;;;;;78.03;16.95;;;1.30;1.00;;;;;;5071173;28;20201;-68
2021/01/05 04:06:10;;;;;;;80.05;18.40;;;1.40;1.00;;;;;;5071238;28;20793;-68
2021/01/05 04:08:36;;;;;;;75.75;16.35;;;1.40;1.00;;;;;;5071580;28;20575;-68
2021/01/05 04:11:03;;;;;;;80.25;16.50;;;1.40;1.00;;;;;;5071491;28;20626;-68
2021/01/05 04:13:31;;;;;;;76.88;16.30;;;1.40;1.00;;;;;;5071016;28;20250;-68
2021/01/05 04:15:57;;;;;;;82.78;17.52;;;1.30;1.00;;;;;;5071262;28;20237;-69
2021/01/05 04:18:23;;;;;;;78.15;17.27;;;1.40;1.00;;;;;;5071667;28;20671;-70
2021/01/05 04:20:50;;;;;;;77.18;16.33;;;1.40;1.00;;;;;;5071346;28;20205;-69
2021/01/05 04:23:16;;;;;;;78.10;17.70;;;1.40;1.00;;;;;;5071431;28;20292;-69
2021/01/05 04:25:43;;;;;;;81.43;18.50;;;1.40;1.00;;;;;;5071300;28;20209;-68
2021/01/05 04:28:09;;;;;;;79.05;16.85;;;1.40;1.00;;;;;;5071446;28;20215;-68
2021/01/05 04:30:37;;;;;;;75.80;16.23;;;1.40;1.00;;;;;;5071059;28;20225;-69
2021/01/05 04:33:06;;;;;;;81.47;17.42;;;1.40;1.00;;;;;;5071314;28;20687;-69
2021/01/05 04:35:33;;;;;;;79.07;17.65;;;1.40;1.00;;;;;;5071320;28;20208;-68
2021/01/05 04:37:59;;;;;;;75.60;16.30;;;1.40;1.00;;;;;;5071409;28;20205;-67
2021/01/05 04:40:33;;;;;;;78.78;16.58;;;1.40;1.00;;;;;;5071231;28;20337;-68
2021/01/05 04:43:17;;;;;;;80.95;16.42;;;1.40;1.00;;;;;;5071061;28;20216;-67
2021/01/05 04:45:58;;;;;;;80.80;18.58;;;1.40;1.00;;;;;;5072156;28;20201;-68
2021/01/05 04:48:36;;;;;;;78.47;16.40;;;1.40;1.00;;;;;;5075185;28;20346;-69
2021/01/05 04:51:10;;;;;;;75.15;14.55;;;1.40;1.00;;;;;;5075085;28;20220;-68
2021/01/05 04:53:42;;;;;;;79.72;17.63;;;1.40;1.00;;;;;;5074575;28;20204;-70
2021/01/05 04:56:11;;;;;;;81.00;16.08;;;1.40;1.00;;;;;;5074712;28;20232;-69
2021/01/05 04:58:42;;;;;;;77.05;16.33;;;1.40;1.00;;;;;;5074667;28;20204;-68
2021/01/05 05:01:16;;;;;;;76.70;15.98;;;1.40;1.00;;;;;;5075179;28;20205;-69
2021/01/05 05:03:52;;;;;;;78.07;17.02;;;1.40;1.00;;;;;;5074828;28;20593;-68
2021/01/05 05:06:32;;;;;;;74.85;16.10;;;1.40;1.00;;;;;;5074717;28;20599;-68
2021/01/05 05:09:27;;;;;;;76.57;15.88;;;1.40;1.00;;;;;;5074672;28;20216;-68
2021/01/05 05:12:11;;;;;;;81.13;18.00;;;1.40;1.00;;;;;;5074548;28;20311;-68
2021/01/05 05:14:48;;;;;;;83.63;18.20;;;1.40;1.00;;;;;;5074158;28;20679;-68
2021/01/05 05:17:38;;;;;;;82.57;17.95;;;1.40;1.00;;;;;;5074388;28;20613;-67
2021/01/05 05:20:17;;;;;;;81.53;17.75;;;1.40;1.00;;;;;;5074490;28;20347;-69
2021/01/05 05:22:53;;;;;;;80.95;18.60;;;1.50;1.00;;;;;;5074358;28;20213;-68
2021/01/05 05:25:25;;;;;;;79.88;16.55;;;1.50;1.00;;;;;;5074126;28;20200;-68
2021/01/05 05:27:57;;;;;;;74.85;15.15;;;1.50;1.00;;;;;;5074536;28;20205;-67
2021/01/05 05:30:33;;;;;;;78.28;16.30;;;1.50;1.00;;;;;;5074138;28;20303;-67
2021/01/05 05:33:03;;;;;;;80.40;17.40;;;1.50;1.00;;;;;;5074059;28;20205;-68
2021/01/05 05:36:03;;;;;;;81.63;15.93;;;1.50;1.00;;;;;;5074015;28;20338;-68
2021/01/05 05:38:44;;;;;;;78.97;16.40;;;1.50;1.00;;;;;;5074211;28;20282;-67
2021/01/05 05:41:21;;;;;;;77.05;16.40;;;1.50;1.00;;;;;;5074068;28;20205;-68
2021/01/05 05:44:15;;;;;;;77.72;17.20;;;1.50;1.00;;;;;;5073780;28;20200;-68
2021/01/05 05:46:45;;;;;;;78.28;16.02;;;1.50;1.00;;;;;;5060974;28;20221;-68
2021/01/05 05:49:27;;;;;;;78.10;16.23;;;1.50;1.00;;;;;;5073925;28;20216;-68
2021/01/05 05:51:58;;;;;;;83.05;17.15;;;1.50;1.00;;;;;;5073665;28;20729;-67
2021/01/05 05:54:24;;;;;;;77.97;16.33;;;1.60;1.00;;;;;;5073445;28;20209;-69
2021/01/05 05:57:11;;;;;;;81.15;18.15;;;1.60;1.00;;;;;;5073319;28;20602;-68
2021/01/05 05:59:41;;;;;;;84.72;19.50;;;1.60;1.00;;;;;;5073819;28;20575;-68
2021/01/05 06:02:12;;;;;;;81.15;18.67;;;1.50;1.00;;;;;;5073862;28;20215;-68
2021/01/05 06:04:39;;;;;;;76.82;16.30;;;1.60;1.00;;;;;;5073553;28;20212;-68
2021/01/05 06:07:06;;;;;;;79.00;18.10;;;1.60;1.00;;;;;;5073329;28;20608;-68
2021/01/05 06:09:32;;;;;;;80.13;17.15;;;1.50;1.00;;;;;;5073642;28;20208;-69
2021/01/05 06:11:58;;;;;;;79.43;18.10;;;1.50;1.00;;;;;;5073419;28;20315;-68
2021/01/05 06:14:25;;;;;;;80.13;17.88;;;1.50;1.00;;;;;;5073144;28;20205;-68
2021/01/05 06:16:51;;;;;;;84.45;19.02;;;1.60;1.00;;;;;;5073356;28;20324;-68
2021/01/05 06:19:18;;;;;;;84.50;18.90;;;1.60;1.00;;;;;;5073089;28;20208;-68
2021/01/05 06:21:45;;;;;;;81.15;17.98;;;1.60;1.00;;;;;;5073030;28;20205;-67
2021/01/05 06:24:11;;;;;;;80.60;17.75;;;1.60;1.00;;;;;;5073058;28;20216;-68
2021/01/05 06:26:37;;;;;;;83.28;20.58;;;1.60;1.00;;;;;;5073044;28;20225;-68
2021/01/05 06:29:04;;;;;;;80.60;18.15;;;1.60;1.00;;;;;;5073189;28;20683;-68
2021/01/05 06:31:30;;;;;;;83.78;19.95;;;1.60;1.00;;;;;;5073140;28;20619;-67
2021/01/05 06:33:57;;;;;;;83.78;18.85;;;1.60;1.00;;;;;;5072818;28;20296;-68
2021/01/05 06:36:23;;;;;;;80.57;19.30;;;1.60;1.00;;;;;;5072986;28;20305;-68
2021/01/05 06:38:51;;;;;;;80.13;18.90;;;1.60;1.00;;;;;;5073181;28;20700;-68
2021/01/05 06:41:17;;;;;;;85.60;19.13;;;1.60;1.00;;;;;;5072949;28;20622;-69
2021/01/05 06:43:44;;;;;;;81.00;18.88;;;1.60;1.00;;;;;;5072704;28;20201;-68
2021/01/05 06:46:10;;;;;;;80.95;17.35;;;1.60;1.00;;;;;;5072693;28;20224;-68
2021/01/05 06:48:37;;;;;;;79.22;17.13;;;1.60;1.00;;;;;;5072632;28;20283;-68
2021/01/05 06:51:03;;;;;;;77.65;15.85;;;1.60;1.00;;;;;;5072689;28;20596;-68
2021/01/05 06:53:30;;;;;;;79.25;17.65;;;1.60;1.00;;;;;;5072629;28;20738;-68
2021/01/05 06:55:57;;;;;;;79.65;18.27;;;1.60;1.00;;;;;;5072675;28;20224;-68
2021/01/05 06:58:23;;;;;;;83.25;19.70;;;1.70;1.00;;;;;;5072552;28;20291;-68
2021/01/05 07:00:50;;;;;;;84.32;19.70;;;1.70;1.00;;;;;;5072454;28;20256;-69
2021/01/05 07:03:16;;;;;;;80.53;19.13;;;1.70;1.00;;;;;;5072032;28;20244;-67
2021/01/05 07:05:42;;;;;;;82.20;18.10;;;1.70;1.00;;;;;;5072484;28;20338;-68
2021/01/05 07:08:09;;;;;;;77.55;18.30;;;1.70;1.00;;;;;;5072236;28;20215;-67
2021/01/05 07:10:35;;;;;;;78.68;17.83;;;1.70;1.00;;;;;;5071456;28;20311;-68
2021/01/05 07:13:02;;;;;;;80.53;17.65;;;1.70;1.00;;;;;;5071845;28;20681;-68
2021/01/05 07:15:29;;;;;;;82.20;18.25;;;1.70;1.00;;;;;;5072102;28;20236;-67
2021/01/05 07:17:55;;;;;;;78.80;18.90;;;1.80;1.00;;;;;;5072058;28;20233;-68
2021/01/05 07:20:21;;;;;;;80.72;18.35;;;1.80;1.00;;;;;;5072135;28;20205;-68
2021/01/05 07:22:47;;;;;;;78.35;17.75;;;1.80;1.00;;;;;;5072257;28;20253;-67
2021/01/05 07:25:15;;;;;;;78.80;17.15;;;1.80;1.00;;;;;;5071778;28;20234;-67
2021/01/05 07:27:41;;;;;;;81.05;18.52;;;1.80;1.00;;;;;;5072040;28;20279;-68
2021/01/05 07:30:09;;;;;;;80.20;18.60;;;1.80;1.00;;;;;;5071717;28;20557;-67
2021/01/05 07:32:36;;;;;;;77.70;18.13;;;1.80;1.00;;;;;;5071801;28;20212;-67
2021/01/05 07:35:03;;;;;;;80.18;17.20;;;1.80;1.00;;;;;;5071667;28;20228;-68
2021/01/05 07:37:34;;;;;;;78.07;17.15;;;1.80;1.00;;;;;;5071747;28;20228;-68
2021/01/05 07:40:01;;;;;;;76.13;16.05;;;1.80;1.00;;;;;;5071761;28;20213;-69
2021/01/05 07:42:29;;;;;;;78.35;17.52;;;1.80;1.00;;;;;;5071842;28;20205;-68
2021/01/05 07:44:58;;;;;;;76.85;17.88;;;1.80;1.00;;;;;;5071271;28;20240;-67
2021/01/05 07:47:28;;;;;;;77.57;16.55;;;1.80;1.00;;;;;;5071774;28;20256;-68
2021/01/05 07:49:54;;;;;;;77.75;16.63;;;1.80;1.00;;;;;;5071516;28;20205;-68
2021/01/05 07:52:32;;;;;;;73.20;15.48;;;1.80;1.00;;;;;;5071583;28;20653;-67
2021/01/05 07:54:59;;;;;;;77.28;17.35;;;1.80;1.00;;;;;;5071362;28;20208;-68
2021/01/05 07:57:25;;;;;;;75.18;15.00;;;1.90;1.00;;;;;;5071744;28;20586;-67
2021/01/05 07:59:51;;;;;;;77.55;16.55;;;1.80;1.00;;;;;;5071822;28;20204;-68
2021/01/05 08:02:18;;;;;;;77.15;16.33;;;1.80;1.00;;;;;;5071422;28;20244;-67
2021/01/05 08:04:45;;;;;;;79.85;18.23;;;1.80;1.00;;;;;;5071143;28;20671;-68
2021/01/05 08:07:13;;;;;;;74.30;16.75;;;1.80;1.00;;;;;;5071425;28;20252;-69
2021/01/05 08:09:40;;;;;;;78.55;17.30;;;1.80;1.00;;;;;;5071278;28;20251;-67
2021/01/05 08:12:12;;;;;;;79.65;17.30;;;1.80;1.00;;;;;;5071250;28;20233;-68
2021/01/05 08:14:38;;;;;;;79.40;17.02;;;1.80;1.00;;;;;;5071100;28;20209;-68
2021/01/05 08:17:04;;;;;;;79.43;17.50;;;1.80;1.00;;;;;;5071324;28;20645;-67
2021/01/05 08:19:31;;;;;;;75.28;15.75;;;1.80;1.00;;;;;;5071275;28;20244;-68
2021/01/05 08:21:58;;;;;;;74.25;16.55;;;1.80;1.00;;;;;;5071125;28;20242;-67
2021/01/05 08:24:24;;;;;;;76.30;17.58;;;1.90;1.00;;;;;;5070840;28;20292;-68
2021/01/05 08:26:51;;;;;;;81.50;17.83;;;1.90;1.00;;;;;;5071433;28;20319;-67
2021/01/05 08:29:17;;;;;;;75.65;15.50;;;1.90;1.00;;;;;;5071240;28;20772;-67
2021/01/05 08:31:45;;;;;;;75.55;15.57;;;1.90;1.00;;;;;;5071324;28;20229;-67
2021/01/05 08:34:11;;;;;;;75.63;15.85;;;1.90;1.00;;;;;;5071069;28;20231;-67
2021/01/05 08:36:38;;;;;;;76.90;17.48;;;1.90;1.00;;;;;;5071014;28;20746;-67
2021/01/05 08:39:07;;;;;;;77.72;17.00;;;1.90;1.00;;;;;;5070999;28;20213;-67
2021/01/05 08:41:33;;;;;;;77.38;16.40;;;1.90;1.00;;;;;;5093658;22;20239;-67
2021/01/05 08:43:59;;;;;;;75.68;16.27;;;2.00;1.00;;;;;;5071239;28;20229;-66
2021/01/05 08:46:28;;;;;;;76.65;17.38;;;2.00;1.00;;;;;;5071485;28;20288;-66
2021/01/05 08:48:54;;;;;;;74.30;15.57;;;2.10;1.00;;;;;;5071343;28;20205;-66
2021/01/05 08:51:22;;;;;;;75.28;16.02;;;2.10;1.00;;;;;;5071498;28;20305;-68
2021/01/05 08:53:50;;;;;;;75.13;15.50;;;2.10;1.00;;;;;;5070860;28;20218;-68
2021/01/05 08:56:18;;;;;;;76.40;15.85;;;2.20;1.00;;;;;;5071241;28;20216;-66
2021/01/05 08:58:45;;;;;;;74.65;14.95;;;2.20;1.00;;;;;;5071171;28;20209;-66
2021/01/05 09:01:11;;;;;;;75.80;16.50;;;2.20;1.00;;;;;;5071488;28;20283;-67
2021/01/05 09:03:38;;;;;;;73.57;14.80;;;2.20;1.00;;;;;;5071485;28;20251;-67
2021/01/05 09:06:05;;;;;;;72.68;15.60;;;2.20;1.00;;;;;;5071017;28;20209;-66
2021/01/05 09:08:32;;;;;;;75.07;16.33;;;2.30;1.00;;;;;;5071269;28;20205;-65
2021/01/05 09:10:59;;;;;;;78.88;16.70;;;2.30;1.00;;;;;;5071301;28;20232;-65
2021/01/05 09:13:26;;;;;;;78.63;17.80;;;2.30;1.00;;;;;;5070909;28;20644;-67
2021/01/05 09:15:53;;;;;;;77.70;16.48;;;2.40;1.00;;;;;;5071136;28;20205;-66
2021/01/05 09:18:20;;;;;;;79.50;16.77;;;2.40;1.00;;;;;;5071244;28;20225;-67
2021/01/05 09:20:50;;;;;;;71.72;15.57;;;2.40;1.00;;;;;;5070787;28;20221;-65
2021/01/05 09:23:21;;;;;;;76.18;15.60;;;2.40;1.00;;;;;;5070970;28;20323;-66
2021/01/05 09:25:49;;;;;;;75.78;16.00;;;2.40;1.00;;;;;;5071196;28;20286;-68
2021/01/05 09:28:15;;;;;;;82.03;16.60;;;2.50;1.00;;;;;;5070870;28;20200;-66
2021/01/05 09:30:42;;;;;;;75.80;16.98;;;2.50;1.00;;;;;;5070755;28;20466;-66
2021/01/05 09:33:09;;;;;;;73.45;15.82;;;2.50;1.00;;;;;;5072912;28;20213;-66
2021/01/05 09:35:35;;;;;;;75.13;16.00;;;2.50;1.00;;;;;;5074519;28;20215;-66
2021/01/05 09:38:01;;;;;;;76.78;16.33;;;2.50;1.00;;;;;;5074384;28;20236;-66
2021/01/05 09:40:28;;;;;;;76.30;16.52;;;2.50;1.00;;;;;;5074253;28;20537;-66
2021/01/05 09:42:54;;;;;;;75.55;16.52;;;2.50;1.00;;;;;;5074492;28;20578;-68
2021/01/05 09:45:21;;;;;;;74.75;16.25;;;2.50;1.00;;;;;;5073959;28;20205;-67
2021/01/05 09:47:48;;;;;;;75.40;17.45;;;2.50;1.00;;;;;;5073902;28;20240;-66
2021/01/05 09:50:14;;;;;;;76.97;17.10;;;2.50;1.00;;;;;;5074291;28;20256;-66
2021/01/05 09:52:41;;;;;;;77.18;17.83;;;2.50;1.00;;;;;;5074497;28;20225;-67
2021/01/05 09:55:08;;;;;;;75.85;18.75;;;2.50;1.00;;;;;;5073997;28;20215;-67
2021/01/05 09:57:34;;;;;;;75.93;16.52;;;2.60;1.00;;;;;;5074056;28;20205;-68
2021/01/05 10:00:01;;;;;;;77.10;17.17;;;2.60;1.00;;;;;;5073931;28;20252;-67
2021/01/05 10:02:27;;;;;;;76.38;17.60;;;2.60;1.00;;;;;;5073470;28;20205;-66
2021/01/05 10:04:54;;;;;;;81.10;17.75;;;2.50;1.00;;;;;;5073963;28;20299;-66
2021/01/05 10:07:23;;;;;;;75.85;17.35;;;2.60;1.00;;;;;;5073923;28;20236;-66
2021/01/05 10:09:49;;;;;;;78.90;18.55;;;2.60;1.00;;;;;;5073660;28;20201;-67
2021/01/05 10:12:15;;;;;;;77.53;16.20;;;2.60;1.00;;;;;;5073860;28;20220;-66
2021/01/05 10:14:41;;;;;;;73.13;15.60;;;2.60;1.00;;;;;;5073310;28;20205;-67
2021/01/05 10:17:08;;;;;;;74.15;15.98;;;2.60;1.00;;;;;;5074056;28;20209;-66
2021/01/05 10:19:34;;;;;;;74.60;17.30;;;2.60;1.00;;;;;;5073698;28;20205;-66
2021/01/05 10:22:01;;;;;;;82.55;21.25;;;2.70;1.00;;;;;;5073855;28;20233;-66
2021/01/05 10:24:28;;;;;;;81.13;19.65;;;2.70;1.00;;;;;;5073081;28;20660;-66
2021/01/05 10:26:55;;;;;;;77.55;18.38;;;2.70;1.00;;;;;;5073733;28;20200;-66
2021/01/05 10:29:22;;;;;;;80.93;19.40;;;2.70;1.00;;;;;;5073027;28;20205;-67
2021/01/05 10:31:50;;;;;;;79.20;18.05;;;2.70;1.00;;;;;;5073147;28;20240;-66
2021/01/05 10:34:19;;;;;;;79.05;18.92;;;2.70;1.00;;;;;;5073053;28;20208;-66
2021/01/05 10:36:49;;;;;;;74.75;16.02;;;2.80;1.00;;;;;;5073415;28;20212;-68
2021/01/05 10:39:17;;;;;;;74.38;16.05;;;2.80;1.00;;;;;;5072930;28;20228;-68
2021/01/05 10:41:45;;;;;;;78.22;17.15;;;2.80;1.00;;;;;;5073040;28;20260;-66
2021/01/05 10:44:12;;;;;;;75.18;16.50;;;2.90;1.00;;;;;;5070471;28;20707;-68
2021/01/05 10:46:39;;;;;;;74.80;16.75;;;3.00;1.00;;;;;;5061083;28;20224;-68
2021/01/05 10:49:05;;;;;;;82.03;19.70;;;3.00;1.00;;;;;;5060897;28;20209;-70
2021/01/05 10:51:32;;;;;;;75.93;16.13;;;3.10;1.00;;;;;;5046022;28;20605;-69
2021/01/05 10:53:58;;;;;;;74.65;16.10;;;3.10;1.00;;;;;;5046293;28;20300;-69
2021/01/05 10:56:26;;;;;;;75.35;16.95;;;3.10;1.00;;;;;;5059582;28;20201;-67
2021/01/05 10:58:52;;;;;;;77.38;17.05;;;3.10;1.00;;;;;;5045903;28;20434;-69
2021/01/05 11:01:18;;;;;;;76.65;17.83;;;3.20;1.00;;;;;;5054013;28;20217;-67
2021/01/05 11:03:45;;;;;;;78.10;17.70;;;3.20;1.00;;;;;;5065333;28;20209;-69
2021/01/05 11:06:11;;;;;;;73.70;15.80;;;3.20;1.00;;;;;;5064283;28;20559;-68
2021/01/05 11:08:38;;;;;;;78.28;17.40;;;3.30;1.00;;;;;;5045351;28;20335;-66
2021/01/05 11:11:05;;;;;;;77.45;17.02;;;3.30;1.00;;;;;;5045252;28;20256;-68
2021/01/05 11:13:33;;;;;;;76.30;17.63;;;3.30;1.00;;;;;;5045421;28;20233;-68
2021/01/05 11:15:59;;;;;;;78.30;16.30;;;3.30;1.00;;;;;;5049369;28;20274;-69
2021/01/05 11:18:25;;;;;;;77.18;17.33;;;3.30;1.00;;;;;;5045744;28;20240;-66
2021/01/05 11:20:51;;;;;;;75.72;15.93;;;3.30;1.00;;;;;;5049544;28;20363;-66
2021/01/05 11:23:18;;;;;;;75.53;15.52;;;3.30;1.00;;;;;;5052261;28;20209;-69
2021/01/05 11:25:45;;;;;;;76.00;16.55;;;3.40;1.00;;;;;;5052046;28;20209;-66
2021/01/05 11:28:11;;;;;;;74.75;17.52;;;3.40;1.00;;;;;;5052531;28;20574;-66
2021/01/05 11:30:38;;;;;;;77.63;16.50;;;3.40;1.00;;;;;;5052220;28;20226;-65
2021/01/05 11:33:05;;;;;;;76.80;18.23;;;3.40;1.00;;;;;;5052233;28;20668;-68
2021/01/05 11:35:31;;;;;;;77.90;16.55;;;3.40;1.00;;;;;;5051830;28;20213;-66
2021/01/05 11:37:58;;;;;;;77.00;16.20;;;3.40;1.00;;;;;;5052316;28;20652;-66
2021/01/05 11:40:24;;;;;;;77.43;15.90;;;3.40;1.00;;;;;;5051217;28;20237;-66
2021/01/05 11:42:50;;;;;;;78.65;17.90;;;3.40;1.00;;;;;;5051612;28;20262;-66
2021/01/05 11:45:17;;;;;;;74.93;16.05;;;3.40;1.00;;;;;;5051567;28;20209;-66
2021/01/05 11:47:44;;;;;;;73.43;15.63;;;3.40;1.00;;;;;;5052354;28;20209;-65
2021/01/05 11:50:12;;;;;;;77.45;16.15;;;3.50;1.00;;;;;;5052177;28;20789;-66
2021/01/05 11:52:39;;;;;;;79.85;18.75;;;3.50;1.00;;;;;;5051892;28;20950;-66
2021/01/05 11:55:08;;;;;;;82.13;19.25;;;3.50;1.00;;;;;;5051225;28;20267;-65
2021/01/05 11:57:34;;;;;;;77.85;16.60;;;3.50;1.00;;;;;;5052273;28;20209;-66
2021/01/05 12:00:00;;;;;;;77.18;17.38;;;3.50;1.00;;;;;;5051907;28;20222;-67
2021/01/05 12:02:27;;;;;;;74.18;16.45;;;3.50;1.00;;;;;;5051656;28;20202;-66
2021/01/05 12:04:54;;;;;;;75.80;18.20;;;3.50;1.00;;;;;;5051668;28;20201;-66
2021/01/05 12:07:23;;;;;;;78.93;18.00;;;3.50;1.00;;;;;;5051673;28;20700;-66
2021/01/05 12:09:50;;;;;;;78.20;16.50;;;3.50;1.00;;;;;;5051946;28;20209;-66
2021/01/05 12:12:16;;;;;;;76.53;17.38;;;3.50;1.00;;;;;;5051837;28;20229;-66
2021/01/05 12:14:42;;;;;;;77.50;16.73;;;3.40;1.00;;;;;;5051421;28;20232;-66
2021/01/05 12:17:09;;;;;;;80.75;20.67;;;3.40;1.00;;;;;;5051618;28;20296;-67
2021/01/05 12:19:40;;;;;;;75.55;16.55;;;3.40;1.00;;;;;;5051246;28;20209;-67
2021/01/05 12:22:09;;;;;;;74.60;16.10;;;3.40;1.00;;;;;;5051426;28;20224;-67
2021/01/05 12:24:37;;;;;;;71.72;14.88;;;3.40;1.00;;;;;;5051246;28;20206;-67
2021/01/05 12:27:05;;;;;;;75.45;16.48;;;3.40;1.00;;;;;;5051725;28;20217;-66
2021/01/05 12:29:33;;;;;;;77.22;17.23;;;3.40;1.00;;;;;;5051401;28;20297;-66
2021/01/05 12:32:01;;;;;;;73.43;15.50;;;3.50;1.00;;;;;;5051495;28;20229;-67
2021/01/05 12:34:31;;;;;;;73.50;14.85;;;3.50;1.00;;;;;;5050911;28;20296;-66
2021/01/05 12:37:00;;;;;;;77.82;17.02;;;3.50;1.00;;;;;;5051723;28;20275;-65
2021/01/05 12:39:31;;;;;;;81.35;17.33;;;3.60;1.00;;;;;;5051811;28;20585;-65
2021/01/05 12:41:58;;;;;;;75.65;16.38;;;3.50;1.00;;;;;;5051315;28;20507;-67
2021/01/05 12:44:25;;;;;;;73.45;15.32;;;3.50;1.00;;;;;;5051174;28;20676;-66
2021/01/05 12:46:53;;;;;;;77.13;16.63;;;3.50;1.00;;;;;;5051378;28;20209;-67
2021/01/05 12:49:20;;;;;;;75.82;16.30;;;3.50;1.00;;;;;;5051220;28;20202;-67
2021/01/05 12:51:48;;;;;;;76.10;16.75;;;3.40;1.00;;;;;;5051434;28;20282;-66
2021/01/05 12:54:16;;;;;;;74.68;15.52;;;3.40;1.00;;;;;;5051034;28;20201;-66
2021/01/05 12:56:43;;;;;;;75.22;16.30;;;3.40;1.00;;;;;;5051151;28;20205;-66
2021/01/05 12:59:12;;;;;;;75.25;16.67;;;3.40;1.00;;;;;;5050947;28;20213;-66
2021/01/05 13:01:38;;;;;;;72.00;14.77;;;3.40;1.00;;;;;;5050950;28;20295;-67